Terminal Aerodrome Forecast
Issued by NWS

Home | Current Version | Previous Version | Text Only | Print | Product List | Glossary On
Versions: 1 2 3 4 5 6 7 8 9 10 11 12 13 14 15 16 17
000
FTUS44 KLZK 301700 RRA
TAFHOT
TAF
KHOT 301745Z 3018/3118 32006KT P6SM VCTS SCT025CB BKN050
     FM310100 34003KT 5SM -SHRA VCTS SCT012 OVC020CB
     FM310800 34003KT 5SM BR VCSH SCT007 OVC012
      TEMPO 3110/3113 2SM BR BKN007
     FM311500 34005KT P6SM OVC015=

USA.gov is the U.S. government's official web portal to all federal, state and local government web resources and services.